createdAt,value
2018-07-20T00:01:33.028Z,90.10
2018-07-20T00:04:02.379Z,87.20
2018-07-20T00:06:32.583Z,88.30
2018-07-20T00:09:02.072Z,85.60
2018-07-20T00:11:31.428Z,87.70
2018-07-20T00:14:00.768Z,87.10
2018-07-20T00:16:30.014Z,87.30
2018-07-20T00:18:59.390Z,85.50
2018-07-20T00:21:28.541Z,88.80
2018-07-20T00:23:57.804Z,85.80
2018-07-20T00:26:26.828Z,85.70
2018-07-20T00:28:55.911Z,86.80
2018-07-20T00:31:25.266Z,86.80
2018-07-20T00:33:54.382Z,87.30
2018-07-20T00:36:23.751Z,87.50
2018-07-20T00:38:53.293Z,88.40
2018-07-20T00:41:22.522Z,87.00
2018-07-20T00:43:52.216Z,90.70
2018-07-20T00:46:21.663Z,89.50
2018-07-20T00:48:50.957Z,89.00
2018-07-20T00:51:20.525Z,87.10
2018-07-20T00:53:51.114Z,89.20
2018-07-20T00:56:20.553Z,86.30
2018-07-20T00:58:50.046Z,88.60
2018-07-20T01:01:19.064Z,92.40
2018-07-20T01:03:48.562Z,91.10
2018-07-20T01:06:17.928Z,90.60
2018-07-20T01:08:47.295Z,92.00
2018-07-20T01:13:45.510Z,96.10
2018-07-20T01:16:14.996Z,95.60
2018-07-20T01:18:44.012Z,91.90
2018-07-20T01:21:13.106Z,90.10
2018-07-20T01:23:42.623Z,91.30
2018-07-20T01:26:11.914Z,89.20
2018-07-20T01:28:41.393Z,86.70
2018-07-20T01:31:10.910Z,86.40
2018-07-20T01:33:39.964Z,91.50
2018-07-20T01:36:09.505Z,93.70
2018-07-20T01:38:38.802Z,95.80
2018-07-20T01:41:07.924Z,94.20
2018-07-20T01:43:37.179Z,94.70
2018-07-20T01:46:06.493Z,94.80
2018-07-20T01:48:35.812Z,92.80
2018-07-20T01:51:05.308Z,93.50
2018-07-20T01:53:34.505Z,95.60
2018-07-20T01:56:03.874Z,98.00
2018-07-20T01:58:33.003Z,99.90
2018-07-20T02:01:02.345Z,95.40
2018-07-20T02:03:31.795Z,97.10
2018-07-20T02:06:01.133Z,97.90
2018-07-20T02:08:30.665Z,96.80
2018-07-20T02:11:01.901Z,93.40
2018-07-20T02:13:31.838Z,96.50
2018-07-20T02:16:01.195Z,99.60
2018-07-20T02:18:30.403Z,99.00
2018-07-20T02:20:59.536Z,98.80
2018-07-20T02:23:29.059Z,97.20
2018-07-20T02:25:58.572Z,99.90
2018-07-20T02:28:27.543Z,99.90
2018-07-20T02:30:56.600Z,99.20
2018-07-20T02:33:25.922Z,99.90
2018-07-20T02:35:55.102Z,99.90
2018-07-20T02:38:24.501Z,99.40
2018-07-20T02:40:53.524Z,99.50
2018-07-20T02:45:51.623Z,91.60
2018-07-20T02:48:20.973Z,93.30
2018-07-20T02:50:50.465Z,94.90
2018-07-20T02:53:19.910Z,99.90
2018-07-20T02:55:49.083Z,99.90
2018-07-20T02:58:18.685Z,99.90
2018-07-20T03:00:48.768Z,99.90
2018-07-20T03:03:18.202Z,99.90
2018-07-20T03:05:47.563Z,99.90
2018-07-20T03:08:16.919Z,99.90
2018-07-20T03:10:47.164Z,99.90
2018-07-20T03:13:16.691Z,99.90
2018-07-20T03:15:46.040Z,99.90
2018-07-20T03:18:15.459Z,99.10
2018-07-20T03:20:44.910Z,99.90
2018-07-20T03:23:14.231Z,95.30
2018-07-20T03:25:43.693Z,96.60
2018-07-20T03:28:13.093Z,96.90
2018-07-20T03:30:42.316Z,99.90
2018-07-20T03:33:11.563Z,98.80
2018-07-20T03:35:41.045Z,95.30
2018-07-20T03:38:10.409Z,93.10
2018-07-20T03:40:39.765Z,92.80
2018-07-20T03:43:09.253Z,92.20
2018-07-20T03:45:38.721Z,91.30
2018-07-20T03:48:08.064Z,91.00
2018-07-20T03:50:37.540Z,91.10
2018-07-20T03:53:07.001Z,90.90
2018-07-20T03:55:37.419Z,92.40
2018-07-20T03:58:06.625Z,97.30
2018-07-20T04:00:36.015Z,99.90
2018-07-20T04:03:05.440Z,98.60
2018-07-20T04:05:34.582Z,99.90
2018-07-20T04:08:04.004Z,99.60
2018-07-20T04:10:33.432Z,99.90
2018-07-20T04:13:02.947Z,97.50
2018-07-20T04:15:32.315Z,99.90
2018-07-20T04:18:01.752Z,99.90
2018-07-20T04:20:30.801Z,99.90
2018-07-20T04:22:59.929Z,97.00
2018-07-20T04:25:29.155Z,99.90
2018-07-20T04:27:58.442Z,99.90
2018-07-20T04:30:27.874Z,99.90
2018-07-20T04:32:57.250Z,99.90
2018-07-20T04:35:26.749Z,99.90
2018-07-20T04:37:56.185Z,99.90
2018-07-20T04:40:25.613Z,99.90
2018-07-20T04:42:54.842Z,99.90
2018-07-20T04:45:24.070Z,99.90
2018-07-20T04:47:53.215Z,99.90
2018-07-20T04:50:22.452Z,99.90
2018-07-20T04:52:51.908Z,99.90
2018-07-20T04:55:21.019Z,99.60
2018-07-20T04:57:50.009Z,97.60
2018-07-20T05:00:19.470Z,96.90
2018-07-20T05:02:48.822Z,96.40
2018-07-20T05:05:18.239Z,96.30
2018-07-20T05:07:47.605Z,94.00
2018-07-20T05:10:16.757Z,95.50
2018-07-20T05:12:46.135Z,95.20
2018-07-20T05:15:15.463Z,93.50
2018-07-20T05:17:44.629Z,93.30
2018-07-20T05:20:13.743Z,93.50
2018-07-20T05:22:43.199Z,92.70
2018-07-20T05:25:12.558Z,93.20
2018-07-20T05:27:42.080Z,91.60
2018-07-20T05:30:11.523Z,92.80
2018-07-20T05:32:40.661Z,90.10
2018-07-20T05:35:10.102Z,89.20
2018-07-20T05:37:39.281Z,86.70
2018-07-20T05:40:08.592Z,85.30
2018-07-20T05:42:37.909Z,83.70
2018-07-20T05:45:07.294Z,83.60
2018-07-20T05:47:36.430Z,83.90
2018-07-20T05:50:07.281Z,83.20
2018-07-20T05:52:36.683Z,82.60
2018-07-20T05:55:06.251Z,81.60
2018-07-20T05:57:35.403Z,79.50
2018-07-20T06:00:05.530Z,85.30
2018-07-20T06:02:34.922Z,91.00
2018-07-20T06:05:04.403Z,90.30
2018-07-20T06:07:33.754Z,85.80
2018-07-20T06:10:04.182Z,91.00
2018-07-20T06:12:33.540Z,91.00
2018-07-20T06:15:02.712Z,87.20
2018-07-20T06:17:31.911Z,83.00
2018-07-20T06:20:00.996Z,84.00
2018-07-20T06:22:30.040Z,83.20
2018-07-20T06:25:00.411Z,85.90
2018-07-20T06:27:29.742Z,81.90
2018-07-20T06:29:59.197Z,81.20
2018-07-20T06:32:29.227Z,80.10
2018-07-20T06:34:58.959Z,78.40
2018-07-20T06:37:28.568Z,73.70
2018-07-20T06:42:26.897Z,74.10
2018-07-20T06:44:55.968Z,72.40
2018-07-20T06:47:26.118Z,74.40
2018-07-20T06:49:55.220Z,72.30
2018-07-20T06:52:24.680Z,70.30
2018-07-20T06:54:53.916Z,71.20
2018-07-20T06:57:23.346Z,68.90
2018-07-20T06:59:52.418Z,69.60
2018-07-20T07:02:21.621Z,70.40
2018-07-20T07:04:50.753Z,69.30
2018-07-20T07:07:20.061Z,69.20
2018-07-20T07:09:49.338Z,69.40
2018-07-20T07:12:18.689Z,68.50
2018-07-20T07:14:49.572Z,68.80
2018-07-20T07:17:18.710Z,68.20
2018-07-20T07:19:48.109Z,68.10
2018-07-20T07:22:17.486Z,69.10
2018-07-20T07:24:46.680Z,67.40
2018-07-20T07:27:15.915Z,67.70
2018-07-20T07:29:45.012Z,66.20
2018-07-20T07:32:14.547Z,67.00
2018-07-20T07:34:43.850Z,65.90
2018-07-20T07:37:13.157Z,65.70
2018-07-20T07:39:42.475Z,64.60
2018-07-20T07:42:11.682Z,64.00
2018-07-20T07:44:41.064Z,64.20
2018-07-20T07:47:10.465Z,63.10
2018-07-20T07:49:39.383Z,63.50
2018-07-20T07:52:08.833Z,62.40
2018-07-20T07:54:38.018Z,61.80
2018-07-20T07:57:07.237Z,62.40
2018-07-20T07:59:37.046Z,61.60
2018-07-20T08:02:06.480Z,61.10
2018-07-20T08:04:35.492Z,60.40
2018-07-20T08:07:04.743Z,60.40
2018-07-20T08:09:33.987Z,59.80
2018-07-20T08:12:03.468Z,65.90
2018-07-20T08:14:32.867Z,62.30
2018-07-20T08:17:02.065Z,59.00
2018-07-20T08:22:01.689Z,57.50
2018-07-20T08:26:59.906Z,57.90
2018-07-20T08:29:29.204Z,57.60
2018-07-20T08:31:58.615Z,57.50
2018-07-20T08:34:27.673Z,57.90
2018-07-20T08:36:56.841Z,59.90
2018-07-20T08:39:25.825Z,58.70
2018-07-20T08:41:55.846Z,57.20
2018-07-20T08:44:24.993Z,55.80
2018-07-20T08:46:53.922Z,58.90
2018-07-20T08:49:23.285Z,58.80
2018-07-20T08:51:52.524Z,57.50
2018-07-20T08:54:21.910Z,56.00
2018-07-20T08:56:51.273Z,55.80
2018-07-20T08:59:20.197Z,56.50
2018-07-20T09:01:49.683Z,56.80
2018-07-20T09:04:18.868Z,57.50
2018-07-20T09:06:48.481Z,56.70
2018-07-20T09:09:18.001Z,55.40
2018-07-20T09:11:47.598Z,58.10
2018-07-20T09:14:16.876Z,56.80
2018-07-20T09:19:15.070Z,55.50
2018-07-20T09:24:13.227Z,53.00
2018-07-20T09:26:42.384Z,52.30
2018-07-20T09:29:11.943Z,51.90
2018-07-20T09:31:41.354Z,53.10
2018-07-20T09:34:10.688Z,52.40
2018-07-20T09:36:39.998Z,54.00
2018-07-20T09:39:10.576Z,51.90
2018-07-20T09:41:39.641Z,52.70
2018-07-20T09:44:08.891Z,51.40
2018-07-20T09:49:07.100Z,51.50
2018-07-20T09:51:36.298Z,50.70
2018-07-20T09:54:05.339Z,50.80
2018-07-20T09:56:34.294Z,50.00
2018-07-20T09:59:03.667Z,49.10
2018-07-20T10:01:33.067Z,51.20
2018-07-20T10:04:02.174Z,50.10
2018-07-20T10:06:31.552Z,48.30
2018-07-20T10:11:29.690Z,48.50
2018-07-20T10:13:59.157Z,49.60
2018-07-20T10:16:28.681Z,49.80
2018-07-20T10:18:58.300Z,49.50
2018-07-20T10:21:27.601Z,50.90
2018-07-20T10:23:56.669Z,49.60
2018-07-20T10:26:25.832Z,51.70
2018-07-20T10:28:54.997Z,49.10
2018-07-20T10:31:24.079Z,46.70
2018-07-20T10:33:53.203Z,47.30
2018-07-20T10:36:22.501Z,50.50
2018-07-20T10:38:51.882Z,49.20
2018-07-20T10:41:21.169Z,48.90
2018-07-20T10:43:50.485Z,49.40
2018-07-20T10:46:19.729Z,48.90
2018-07-20T10:48:49.339Z,47.90
2018-07-20T10:51:18.718Z,47.00
2018-07-20T10:53:48.052Z,46.10
2018-07-20T10:56:17.407Z,46.20
2018-07-20T10:58:47.078Z,45.90
2018-07-20T11:01:16.414Z,45.70
2018-07-20T11:03:45.733Z,44.80
2018-07-20T11:06:15.089Z,44.80
2018-07-20T11:08:45.483Z,47.20
2018-07-20T11:11:15.652Z,44.80
2018-07-20T11:13:44.956Z,46.20
2018-07-20T11:16:14.053Z,46.50
2018-07-20T11:18:43.721Z,47.10
2018-07-20T11:21:13.131Z,46.70
2018-07-20T11:23:42.437Z,48.30
2018-07-20T11:26:11.748Z,49.70
2018-07-20T11:28:41.319Z,51.50
2018-07-20T11:31:10.648Z,52.90
2018-07-20T11:33:39.648Z,53.80
2018-07-20T11:36:08.782Z,53.90
2018-07-20T11:38:38.207Z,53.90
2018-07-20T11:43:36.128Z,54.10
2018-07-20T11:46:05.381Z,53.30
2018-07-20T11:48:34.433Z,54.30
2018-07-20T11:51:04.238Z,54.90
2018-07-20T11:53:33.557Z,56.60
2018-07-20T11:56:04.062Z,55.90
2018-07-20T11:58:33.201Z,55.90
2018-07-20T12:01:02.659Z,56.80
2018-07-20T12:03:31.766Z,55.30
2018-07-20T12:06:01.173Z,55.90
2018-07-20T12:08:31.477Z,55.10
2018-07-20T12:11:00.594Z,53.90
2018-07-20T12:13:30.168Z,53.30
2018-07-20T12:15:59.579Z,52.40
2018-07-20T12:18:28.990Z,51.40
2018-07-20T12:20:58.170Z,51.60
2018-07-20T12:23:27.477Z,50.40
2018-07-20T12:25:56.874Z,50.60
2018-07-20T12:28:26.242Z,49.20
2018-07-20T12:30:55.495Z,49.20
2018-07-20T12:33:24.929Z,49.70
2018-07-20T12:35:54.122Z,49.50
2018-07-20T12:38:23.318Z,49.00
2018-07-20T12:40:52.617Z,49.10
2018-07-20T12:43:22.198Z,49.80
2018-07-20T12:45:51.900Z,49.70
2018-07-20T12:48:21.421Z,50.10
2018-07-20T12:50:50.781Z,50.20
2018-07-20T12:53:20.433Z,50.70
2018-07-20T12:55:49.499Z,50.00
2018-07-20T12:58:18.610Z,49.10
2018-07-20T13:00:47.680Z,50.20
2018-07-20T13:03:18.037Z,50.70
2018-07-20T13:05:47.360Z,51.30
2018-07-20T13:08:16.922Z,51.30
2018-07-20T13:10:46.424Z,51.20
2018-07-20T13:13:16.570Z,51.60
2018-07-20T13:15:46.641Z,52.50
2018-07-20T13:18:15.821Z,53.40
2018-07-20T13:20:44.921Z,53.90
2018-07-20T13:23:13.901Z,53.90
2018-07-20T13:25:43.096Z,53.00
2018-07-20T13:28:12.336Z,52.80
2018-07-20T13:30:42.298Z,53.30
2018-07-20T13:33:11.351Z,53.40
2018-07-20T13:35:40.517Z,54.10
2018-07-20T13:40:38.597Z,58.10
2018-07-20T13:43:07.885Z,57.70
2018-07-20T13:45:37.301Z,57.90
2018-07-20T13:48:06.308Z,58.60
2018-07-20T13:50:35.467Z,58.90
2018-07-20T13:53:04.791Z,60.70
2018-07-20T13:55:34.120Z,60.30
2018-07-20T13:58:03.534Z,61.00
2018-07-20T14:00:32.903Z,60.10
2018-07-20T14:03:01.864Z,58.90
2018-07-20T14:05:30.965Z,58.60
2018-07-20T14:08:00.079Z,58.70
2018-07-20T14:10:29.139Z,59.20
2018-07-20T14:12:58.035Z,59.90
2018-07-20T14:15:27.068Z,60.00
2018-07-20T14:17:56.431Z,60.00
2018-07-20T14:20:25.785Z,60.00
2018-07-20T14:22:55.206Z,58.20
2018-07-20T14:25:24.668Z,57.50
2018-07-20T14:30:22.927Z,58.30
2018-07-20T14:32:52.370Z,58.40
2018-07-20T14:35:21.698Z,58.40
2018-07-20T14:37:51.290Z,59.20
2018-07-20T14:40:20.664Z,59.30
2018-07-20T14:42:50.112Z,60.00
2018-07-20T14:45:19.250Z,59.60
2018-07-20T14:47:48.508Z,59.70
2018-07-20T14:50:17.915Z,59.40
2018-07-20T14:52:47.698Z,58.10
2018-07-20T14:55:17.075Z,58.90
2018-07-20T14:57:46.092Z,59.20
2018-07-20T15:00:15.729Z,59.20
2018-07-20T15:02:44.801Z,58.30
2018-07-20T15:05:14.300Z,57.50
2018-07-20T15:07:43.760Z,57.20
2018-07-20T15:10:12.811Z,56.90
2018-07-20T15:12:42.325Z,56.60
2018-07-20T15:15:11.743Z,57.20
2018-07-20T15:17:41.499Z,57.70
2018-07-20T15:20:11.821Z,58.30
2018-07-20T15:22:40.985Z,57.60
2018-07-20T15:25:11.157Z,57.70
2018-07-20T15:27:40.223Z,57.50
2018-07-20T15:30:09.413Z,57.20
2018-07-20T15:32:38.504Z,57.50
2018-07-20T15:35:07.623Z,57.00
2018-07-20T15:37:36.681Z,57.00
2018-07-20T15:40:05.911Z,56.10
2018-07-20T15:42:35.563Z,55.80
2018-07-20T15:45:05.101Z,56.40
2018-07-20T15:47:34.800Z,56.30
2018-07-20T15:50:04.240Z,56.40
2018-07-20T15:55:03.352Z,55.60
2018-07-20T15:57:32.856Z,56.50
2018-07-20T16:02:31.281Z,58.30
2018-07-20T16:05:00.702Z,58.20
2018-07-20T16:07:30.138Z,57.50
2018-07-20T16:09:59.604Z,57.40
2018-07-20T16:12:28.918Z,57.40
2018-07-20T16:14:58.472Z,58.10
2018-07-20T16:17:28.284Z,58.30
2018-07-20T16:19:57.627Z,58.00
2018-07-20T16:22:27.279Z,58.70
2018-07-20T16:24:56.815Z,58.40
2018-07-20T16:27:26.117Z,59.60
2018-07-20T16:29:55.291Z,61.70
2018-07-20T16:32:24.523Z,62.80
2018-07-20T16:34:53.847Z,61.70
2018-07-20T16:37:23.061Z,62.00
2018-07-20T16:39:52.699Z,61.90
2018-07-20T16:42:22.216Z,61.30
2018-07-20T16:44:51.829Z,61.30
2018-07-20T16:47:21.409Z,61.20
2018-07-20T16:49:50.670Z,61.50
2018-07-20T16:52:19.808Z,61.10
2018-07-20T16:54:49.515Z,60.90
2018-07-20T16:59:48.325Z,60.80
2018-07-20T17:02:17.476Z,60.70
2018-07-20T17:04:47.247Z,60.30
2018-07-20T17:07:16.358Z,60.00
2018-07-20T17:09:45.865Z,61.00
2018-07-20T17:12:14.970Z,61.20
2018-07-20T17:14:44.424Z,61.30
2018-07-20T17:17:13.533Z,60.20
2018-07-20T17:19:43.030Z,60.10
2018-07-20T17:22:12.165Z,60.80
2018-07-20T17:24:41.578Z,60.60
2018-07-20T17:27:11.223Z,60.90
2018-07-20T17:29:40.582Z,61.00
2018-07-20T17:32:10.829Z,61.00
2018-07-20T17:34:40.099Z,60.60
2018-07-20T17:37:09.897Z,62.70
2018-07-20T17:39:39.277Z,64.00
2018-07-20T17:42:09.244Z,65.00
2018-07-20T17:44:38.744Z,67.30
2018-07-20T17:47:08.349Z,68.30
2018-07-20T17:49:38.175Z,67.20
2018-07-20T17:52:07.432Z,67.20
2018-07-20T17:54:37.168Z,67.20
2018-07-20T17:57:06.559Z,67.10
2018-07-20T17:59:36.049Z,66.60
2018-07-20T18:02:06.090Z,66.50
2018-07-20T18:04:35.482Z,65.90
2018-07-20T18:07:05.128Z,66.10
2018-07-20T18:09:35.328Z,65.70
2018-07-20T18:12:04.738Z,65.50
2018-07-20T18:14:34.220Z,66.30
2018-07-20T18:17:03.515Z,67.10
2018-07-20T18:19:32.821Z,67.20
2018-07-20T18:22:02.339Z,67.20
2018-07-20T18:24:32.048Z,67.90
2018-07-20T18:27:01.901Z,67.70
2018-07-20T18:29:31.289Z,67.40
2018-07-20T18:32:00.851Z,66.40
2018-07-20T18:34:30.246Z,65.30
2018-07-20T18:36:59.391Z,63.90
2018-07-20T18:39:28.759Z,64.50
2018-07-20T18:41:58.172Z,65.90
2018-07-20T18:44:27.674Z,66.70
2018-07-20T18:46:57.254Z,66.50
2018-07-20T18:49:26.424Z,67.00
2018-07-20T18:51:55.939Z,67.40
2018-07-20T18:54:25.398Z,68.20
2018-07-20T18:56:54.723Z,69.70
2018-07-20T18:59:23.851Z,69.30
2018-07-20T19:01:53.698Z,68.40
2018-07-20T19:04:23.321Z,67.90
2018-07-20T19:06:52.886Z,67.00
2018-07-20T19:09:22.408Z,66.30
2018-07-20T19:11:51.674Z,66.00
2018-07-20T19:14:21.198Z,65.60
2018-07-20T19:16:51.761Z,65.60
2018-07-20T19:19:21.287Z,66.90
2018-07-20T19:24:20.060Z,68.90
2018-07-20T19:26:49.472Z,69.60
2018-07-20T19:29:18.975Z,71.10
2018-07-20T19:31:48.369Z,75.00
2018-07-20T19:34:17.945Z,80.50
2018-07-20T19:36:47.281Z,77.20
2018-07-20T19:39:16.495Z,77.30
2018-07-20T19:41:46.127Z,80.90
2018-07-20T19:44:16.810Z,80.40
2018-07-20T19:46:46.603Z,86.40
2018-07-20T19:49:16.059Z,87.30
2018-07-20T19:54:14.739Z,90.50
2018-07-20T19:56:44.429Z,92.00
2018-07-20T19:59:13.751Z,94.90
2018-07-20T20:01:43.270Z,96.10
2018-07-20T20:04:12.915Z,97.30
2018-07-20T20:06:42.385Z,97.60
2018-07-20T20:09:12.537Z,98.70
2018-07-20T20:11:42.261Z,97.40
2018-07-20T20:14:11.671Z,96.50
2018-07-20T20:16:41.080Z,99.60
2018-07-20T20:19:10.554Z,98.40
2018-07-20T20:21:39.972Z,98.70
2018-07-20T20:24:09.214Z,99.90
2018-07-20T20:26:38.532Z,99.90
2018-07-20T20:29:08.308Z,97.80
2018-07-20T20:31:37.834Z,99.40
2018-07-20T20:34:07.333Z,98.60
2018-07-20T20:36:37.133Z,98.00
2018-07-20T20:39:11.234Z,99.90
2018-07-20T20:41:40.835Z,99.90
2018-07-20T20:44:10.932Z,99.20
2018-07-20T20:46:41.200Z,99.90
2018-07-20T20:49:10.891Z,99.90
2018-07-20T20:51:41.307Z,99.90
2018-07-20T20:54:10.522Z,99.90
2018-07-20T20:56:39.971Z,98.40
2018-07-20T20:59:09.654Z,99.90
2018-07-20T21:01:39.140Z,99.60
2018-07-20T21:04:09.051Z,99.90
2018-07-20T21:06:38.701Z,99.90
2018-07-20T21:09:09.626Z,99.90
2018-07-20T21:14:08.593Z,99.90
2018-07-20T21:16:38.170Z,99.90
2018-07-20T21:19:07.551Z,99.90
2018-07-20T21:21:36.903Z,99.90
2018-07-20T21:24:06.784Z,99.90
2018-07-20T21:26:36.532Z,99.90
2018-07-20T21:29:05.995Z,99.90
2018-07-20T21:31:35.457Z,99.90
2018-07-20T21:34:05.237Z,99.90
2018-07-20T21:36:34.883Z,99.90
2018-07-20T21:39:06.770Z,99.90
2018-07-20T21:41:36.420Z,99.90
2018-07-20T21:44:06.702Z,99.90
2018-07-20T21:46:37.185Z,99.90
2018-07-20T21:49:06.353Z,99.90
2018-07-20T21:51:35.771Z,99.90
2018-07-20T21:54:05.293Z,99.90
2018-07-20T21:56:34.422Z,99.90
2018-07-20T21:59:04.100Z,99.90
2018-07-20T22:01:33.603Z,99.90
2018-07-20T22:04:03.123Z,99.90
2018-07-20T22:06:33.371Z,99.90
2018-07-20T22:09:02.962Z,99.90
2018-07-20T22:11:32.574Z,99.90
2018-07-20T22:14:02.174Z,99.90
2018-07-20T22:16:32.650Z,99.90
2018-07-20T22:19:02.086Z,99.90
2018-07-20T22:21:31.578Z,99.90
2018-07-20T22:24:00.837Z,99.90
2018-07-20T22:26:30.397Z,99.90
2018-07-20T22:28:59.891Z,99.90
2018-07-20T22:31:29.695Z,99.90
2018-07-20T22:33:58.993Z,99.90
2018-07-20T22:36:28.549Z,99.90
2018-07-20T22:38:57.842Z,99.90
2018-07-20T22:41:27.439Z,99.90
2018-07-20T22:43:57.736Z,99.90
2018-07-20T22:46:26.852Z,99.90
2018-07-20T22:48:56.492Z,99.90
2018-07-20T22:51:26.599Z,99.90
2018-07-20T22:53:55.947Z,99.90
2018-07-20T22:56:25.454Z,99.90
2018-07-20T22:58:54.714Z,99.90
2018-07-20T23:01:24.077Z,99.90
2018-07-20T23:03:53.540Z,99.90
2018-07-20T23:06:23.031Z,99.90
2018-07-20T23:08:52.600Z,99.90
2018-07-20T23:11:22.238Z,99.90
2018-07-20T23:13:51.501Z,99.90
2018-07-20T23:16:21.260Z,99.90
2018-07-20T23:18:50.625Z,99.90
2018-07-20T23:21:19.893Z,99.90
2018-07-20T23:23:49.221Z,99.90
2018-07-20T23:26:18.851Z,99.90
2018-07-20T23:28:48.189Z,99.90
2018-07-20T23:31:17.748Z,99.90
2018-07-20T23:33:47.309Z,99.90
2018-07-20T23:36:16.994Z,99.90
2018-07-20T23:38:46.375Z,99.90
2018-07-20T23:41:16.377Z,99.90
2018-07-20T23:43:45.811Z,99.90
2018-07-20T23:46:15.664Z,99.90
2018-07-20T23:48:45.259Z,99.90
2018-07-20T23:51:14.639Z,99.90
2018-07-20T23:53:44.370Z,99.90
2018-07-20T23:56:14.146Z,99.90
2018-07-20T23:58:43.771Z,99.90
